M/V Alton St. Amant — WDE7604 — position and weather

sailwx.info

Track history (hours):
 
Tides and Currents Weather Stations Pressure Air Temp Water Temp Dewpoint Dewpoint Depression Visibility Wind Speed Wind Dir Waves Ship Positions

M/V Alton St. Amant

Owner: The Barge Investment Group Five, L.L.C., Harahan, LA. More information available from US FCC via Universal Licensing System and Coast Guard Vessel Documentation Center.

Last reported at 2015-May-20 09:08 UTC. Time now 2015-May-22 14:37 UTC.
Position N 29°60' W 089°60'.

Length 25 m; draft 2.7 m.

Type: Towing. MMSI: 367395270.

Date/timePositionNaut miles runAvg speedWind from/ knotsBaromVisibWave heightAir tempDewpointWater temp
2015-May-20 09:08N 29°60' W 089°60'4 1.2
2015-May-20 06:11N 29°56' W 090°00'0 0.1
2015-May-20 05:26N 29°56' W 090°00'0 0.0
2015-May-20 04:24N 29°56' W 090°00'0 0.0
2015-May-20 03:33N 29°56' W 090°00'0 0.0
2015-May-20 02:30N 29°56' W 090°00'0 0.0
2015-May-20 01:33N 29°56' W 090°00'0 0.0
2015-May-20 00:30N 29°56' W 090°00'0 0.0
2015-May-19 23:24N 29°56' W 090°00'0 0.0
2015-May-19 22:30N 29°56' W 090°00'0 0.2
2015-May-19 21:31N 29°56' W 090°00'0 0.0
2015-May-19 20:29N 29°56' W 090°00'0 0.0
2015-May-19 19:33N 29°56' W 090°00'0 0.0
2015-May-19 18:32N 29°56' W 090°00'0 0.0
2015-May-19 17:31N 29°56' W 090°00'0 0.0
2015-May-19 16:33N 29°56' W 090°00'0 0.0
2015-May-19 15:32N 29°56' W 090°00'0 0.1
2015-May-19 14:32N 29°56' W 090°00'0 0.1
2015-May-19 13:32N 29°56' W 090°00'0 0.2
2015-May-19 12:25N 29°56' W 090°00'0 0.2
2015-May-19 11:31N 29°56' W 090°00'0 0.0
2015-May-19 10:32N 29°56' W 090°00'0 0.0
2015-May-19 09:30N 29°56' W 090°00'3 3.1
2015-May-19 08:32N 29°57' W 090°03'4 4.2
2015-May-19 07:29N 29°57' W 090°09'  
2015-May-15 07:21N 29°34' W 090°29'5 5.7
2015-May-15 06:33N 29°34' W 090°34'4 4.3
2015-May-15 05:33N 29°36' W 090°39'3 3.3
2015-May-15 04:33N 29°35' W 090°43'3 2.9
2015-May-15 03:33N 29°33' W 090°45'0 0.0
2015-May-15 02:33N 29°33' W 090°45'2 2.3
2015-May-15 01:33N 29°32' W 090°47'8 7.4
2015-May-15 00:29N 29°34' W 090°56'205 4.4
2015-May-13 01:32N 29°29' W 094°52'7 7.5
2015-May-13 00:33N 29°35' W 094°56'7 7.4
2015-May-12 23:33N 29°42' W 094°60'6 6.0
2015-May-12 22:33N 29°46' W 095°05'1 1.0
2015-May-12 21:33N 29°47' W 095°05'0 0.1
2015-May-12 20:30N 29°47' W 095°05'0 0.0
2015-May-12 17:15N 29°47' W 095°05'0 0.0
2015-May-12 15:14N 29°47' W 095°05'0 0.2
2015-May-12 14:30N 29°47' W 095°05'0 0.0
2015-May-12 13:33N 29°47' W 095°05'0 0.0
2015-May-12 12:24N 29°47' W 095°05'0 0.0
2015-May-12 11:33N 29°47' W 095°05'0 0.0
2015-May-12 10:33N 29°47' W 095°05'0 0.0
2015-May-12 09:33N 29°47' W 095°05'0 0.0
2015-May-12 08:25N 29°47' W 095°05'0 0.0
2015-May-12 07:32N 29°47' W 095°05'0 0.0
2015-May-12 06:31N 29°47' W 095°05'0 0.0
2015-May-12 05:31N 29°47' W 095°05'0 0.2
2015-May-12 04:32N 29°47' W 095°04'0 0.1
2015-May-12 03:33N 29°47' W 095°05'1 0.3
2015-May-12 00:18N 29°47' W 095°06'0 0.0
2015-May-11 23:32N 29°47' W 095°06'0 0.0
2015-May-11 22:31N 29°47' W 095°06'0 0.0
2015-May-11 21:30N 29°47' W 095°06'0 0.0
2015-May-11 20:08N 29°47' W 095°06'1 0.9
2015-May-11 19:33N 29°47' W 095°05'0 0.0
2015-May-11 11:27N 29°47' W 095°05'0 0.2
2015-May-11 10:21N 29°47' W 095°04'5 5.8
2015-May-11 09:29N 29°44' W 095°09'  
Track history (hours):
 
Tides and Currents Weather Stations Pressure Air Temp Water Temp Dewpoint Dewpoint Depression Visibility Wind Speed Wind Dir Waves Ship Positions

M/V Alton St. Amant

Owner: The Barge Investment Group Five, L.L.C., Harahan, LA. More information available from US FCC via Universal Licensing System and Coast Guard Vessel Documentation Center.

Last reported at 2015-May-20 09:08 UTC. Time now 2015-May-22 14:37 UTC.
Position N 29°60' W 089°60'.

Length 25 m; draft 2.7 m.

Type: Towing. MMSI: 367395270.

Date/timePositionNaut miles runAvg speedWind from/ knotsBaromVisibWave heightAir tempDewpointWater temp
2015-May-20 09:08N 29°60' W 089°60'4 1.2
2015-May-20 06:11N 29°56' W 090°00'0 0.1
2015-May-20 05:26N 29°56' W 090°00'0 0.0
2015-May-20 04:24N 29°56' W 090°00'0 0.0
2015-May-20 03:33N 29°56' W 090°00'0 0.0
2015-May-20 02:30N 29°56' W 090°00'0 0.0
2015-May-20 01:33N 29°56' W 090°00'0 0.0
2015-May-20 00:30N 29°56' W 090°00'0 0.0
2015-May-19 23:24N 29°56' W 090°00'0 0.0
2015-May-19 22:30N 29°56' W 090°00'0 0.2
2015-May-19 21:31N 29°56' W 090°00'0 0.0
2015-May-19 20:29N 29°56' W 090°00'0 0.0
2015-May-19 19:33N 29°56' W 090°00'0 0.0
2015-May-19 18:32N 29°56' W 090°00'0 0.0
2015-May-19 17:31N 29°56' W 090°00'0 0.0
2015-May-19 16:33N 29°56' W 090°00'0 0.0
2015-May-19 15:32N 29°56' W 090°00'0 0.1
2015-May-19 14:32N 29°56' W 090°00'0 0.1
2015-May-19 13:32N 29°56' W 090°00'0 0.2
2015-May-19 12:25N 29°56' W 090°00'0 0.2
2015-May-19 11:31N 29°56' W 090°00'0 0.0
2015-May-19 10:32N 29°56' W 090°00'0 0.0
2015-May-19 09:30N 29°56' W 090°00'3 3.1
2015-May-19 08:32N 29°57' W 090°03'4 4.2
2015-May-19 07:29N 29°57' W 090°09'  
2015-May-15 07:21N 29°34' W 090°29'5 5.7
2015-May-15 06:33N 29°34' W 090°34'4 4.3
2015-May-15 05:33N 29°36' W 090°39'3 3.3
2015-May-15 04:33N 29°35' W 090°43'3 2.9
2015-May-15 03:33N 29°33' W 090°45'0 0.0
2015-May-15 02:33N 29°33' W 090°45'2 2.3
2015-May-15 01:33N 29°32' W 090°47'8 7.4
2015-May-15 00:29N 29°34' W 090°56'205 4.4
2015-May-13 01:32N 29°29' W 094°52'7 7.5
2015-May-13 00:33N 29°35' W 094°56'7 7.4
2015-May-12 23:33N 29°42' W 094°60'6 6.0
2015-May-12 22:33N 29°46' W 095°05'1 1.0
2015-May-12 21:33N 29°47' W 095°05'0 0.1
2015-May-12 20:30N 29°47' W 095°05'0 0.0
2015-May-12 17:15N 29°47' W 095°05'0 0.0
2015-May-12 15:14N 29°47' W 095°05'0 0.2
2015-May-12 14:30N 29°47' W 095°05'0 0.0
2015-May-12 13:33N 29°47' W 095°05'0 0.0
2015-May-12 12:24N 29°47' W 095°05'0 0.0
2015-May-12 11:33N 29°47' W 095°05'0 0.0
2015-May-12 10:33N 29°47' W 095°05'0 0.0
2015-May-12 09:33N 29°47' W 095°05'0 0.0
2015-May-12 08:25N 29°47' W 095°05'0 0.0
2015-May-12 07:32N 29°47' W 095°05'0 0.0
2015-May-12 06:31N 29°47' W 095°05'0 0.0
2015-May-12 05:31N 29°47' W 095°05'0 0.2
2015-May-12 04:32N 29°47' W 095°04'0 0.1
2015-May-12 03:33N 29°47' W 095°05'1 0.3
2015-May-12 00:18N 29°47' W 095°06'0 0.0
2015-May-11 23:32N 29°47' W 095°06'0 0.0
2015-May-11 22:31N 29°47' W 095°06'0 0.0
2015-May-11 21:30N 29°47' W 095°06'0 0.0
2015-May-11 20:08N 29°47' W 095°06'1 0.9
2015-May-11 19:33N 29°47' W 095°05'0 0.0
2015-May-11 11:27N 29°47' W 095°05'0 0.2
2015-May-11 10:21N 29°47' W 095°04'5 5.8
2015-May-11 09:29N 29°44' W 095°09'  

Dump ship's entire track history